createdAt,value
2018-06-30T00:01:43.477Z,18.40
2018-06-30T00:03:51.298Z,18.50
2018-06-30T00:05:53.381Z,18.40
2018-06-30T00:07:55.466Z,18.50
2018-06-30T00:09:57.729Z,18.50
2018-06-30T00:11:59.905Z,18.40
2018-06-30T00:14:02.034Z,18.30
2018-06-30T00:16:04.144Z,18.30
2018-06-30T00:18:06.306Z,18.20
2018-06-30T00:20:08.390Z,18.30
2018-06-30T00:22:10.499Z,18.20
2018-06-30T00:24:12.582Z,18.00
2018-06-30T00:26:14.674Z,18.20
2018-06-30T00:28:16.791Z,18.20
2018-06-30T00:30:18.902Z,18.20
2018-06-30T00:32:21.041Z,18.30
2018-06-30T00:34:23.129Z,18.20
2018-06-30T00:36:25.229Z,18.10
2018-06-30T00:38:27.426Z,18.10
2018-06-30T00:40:29.538Z,18.00
2018-06-30T00:42:31.613Z,17.90
2018-06-30T00:44:33.717Z,18.00
2018-06-30T00:46:35.801Z,18.00
2018-06-30T00:48:37.923Z,18.10
2018-06-30T00:50:39.966Z,18.00
2018-06-30T00:52:42.065Z,17.80
2018-06-30T00:54:44.209Z,17.90
2018-06-30T00:56:46.439Z,17.90
2018-06-30T00:58:48.522Z,17.90
2018-06-30T01:00:50.639Z,17.90
2018-06-30T01:02:52.779Z,17.80
2018-06-30T01:04:54.870Z,17.90
2018-06-30T01:06:57.118Z,17.60
2018-06-30T01:08:59.190Z,17.70
2018-06-30T01:11:01.329Z,17.60
2018-06-30T01:13:03.450Z,17.60
2018-06-30T01:15:05.568Z,17.60
2018-06-30T01:17:07.690Z,17.60
2018-06-30T01:19:09.763Z,17.60
2018-06-30T01:21:11.883Z,17.50
2018-06-30T01:23:13.958Z,17.40
2018-06-30T01:25:16.049Z,17.10
2018-06-30T01:27:18.126Z,17.00
2018-06-30T01:29:20.199Z,17.20
2018-06-30T01:31:22.274Z,17.00
2018-06-30T01:33:24.365Z,17.00
2018-06-30T01:35:26.453Z,16.80
2018-06-30T01:37:28.675Z,16.70
2018-06-30T01:39:31.585Z,16.80
2018-06-30T01:41:33.662Z,16.80
2018-06-30T01:43:35.760Z,16.80
2018-06-30T01:45:37.898Z,16.70
2018-06-30T01:47:39.970Z,16.80
2018-06-30T01:49:42.039Z,16.60
2018-06-30T01:51:44.143Z,16.20
2018-06-30T01:53:46.229Z,16.30
2018-06-30T01:55:48.313Z,16.50
2018-06-30T01:57:57.079Z,16.70
2018-06-30T01:59:59.170Z,16.80
2018-06-30T02:02:01.285Z,16.70
2018-06-30T02:04:03.394Z,16.70
2018-06-30T02:06:05.654Z,16.60
2018-06-30T02:08:07.806Z,16.70
2018-06-30T02:10:09.887Z,16.70
2018-06-30T02:12:11.986Z,16.80
2018-06-30T02:14:14.051Z,16.80
2018-06-30T02:16:16.155Z,16.90
2018-06-30T02:18:18.216Z,16.90
2018-06-30T02:20:20.301Z,16.90
2018-06-30T02:22:22.417Z,16.80
2018-06-30T02:24:24.545Z,16.70
2018-06-30T02:26:26.611Z,16.60
2018-06-30T02:28:28.705Z,16.50
2018-06-30T02:30:30.786Z,16.50
2018-06-30T02:32:32.913Z,16.60
2018-06-30T02:34:34.986Z,16.50
2018-06-30T02:36:37.094Z,16.50
2018-06-30T02:38:39.177Z,16.40
2018-06-30T02:40:41.302Z,16.30
2018-06-30T02:42:43.378Z,16.40
2018-06-30T02:44:45.451Z,16.40
2018-06-30T02:46:47.798Z,16.40
2018-06-30T02:48:49.886Z,16.30
2018-06-30T02:50:51.965Z,16.10
2018-06-30T02:52:54.086Z,15.80
2018-06-30T02:54:56.934Z,15.80
2018-06-30T02:56:59.029Z,15.70
2018-06-30T02:59:01.470Z,15.80
2018-06-30T03:01:03.559Z,15.90
2018-06-30T03:03:05.657Z,16.10
2018-06-30T03:05:08.165Z,15.90
2018-06-30T03:07:10.276Z,16.00
2018-06-30T03:09:12.332Z,16.10
2018-06-30T03:11:14.439Z,16.20
2018-06-30T03:13:16.543Z,16.20
2018-06-30T03:15:18.606Z,16.10
2018-06-30T03:17:20.683Z,15.90
2018-06-30T03:19:22.750Z,16.00
2018-06-30T03:21:24.858Z,16.20
2018-06-30T03:23:26.936Z,16.10
2018-06-30T03:25:29.017Z,16.10
2018-06-30T03:27:31.082Z,16.00
2018-06-30T03:29:33.855Z,15.90
2018-06-30T03:31:35.999Z,15.60
2018-06-30T03:33:38.047Z,15.70
2018-06-30T03:35:40.129Z,15.40
2018-06-30T03:37:42.205Z,15.40
2018-06-30T03:39:44.278Z,15.40
2018-06-30T03:41:46.342Z,15.40
2018-06-30T03:43:48.438Z,15.70
2018-06-30T03:45:50.510Z,15.40
2018-06-30T03:47:52.569Z,15.40
2018-06-30T03:49:54.649Z,14.90
2018-06-30T03:51:56.723Z,14.90
2018-06-30T03:53:58.790Z,14.90
2018-06-30T03:56:00.981Z,14.90
2018-06-30T03:58:03.126Z,14.90
2018-06-30T04:00:05.577Z,14.70
2018-06-30T04:02:07.643Z,14.90
2018-06-30T04:04:09.714Z,15.00
2018-06-30T04:06:11.989Z,14.90
2018-06-30T04:08:14.073Z,14.70
2018-06-30T04:10:16.133Z,14.50
2018-06-30T04:12:18.205Z,14.60
2018-06-30T04:14:20.282Z,14.70
2018-06-30T04:18:24.521Z,14.80
2018-06-30T04:20:26.602Z,14.90
2018-06-30T04:22:28.708Z,14.70
2018-06-30T04:24:30.775Z,14.80
2018-06-30T04:26:33.021Z,14.80
2018-06-30T04:28:35.207Z,14.90
2018-06-30T04:30:37.370Z,15.10
2018-06-30T04:32:39.461Z,15.10
2018-06-30T04:34:41.558Z,14.90
2018-06-30T04:36:43.621Z,15.00
2018-06-30T04:38:45.722Z,15.40
2018-06-30T04:40:47.800Z,15.20
2018-06-30T04:42:49.911Z,15.20
2018-06-30T04:44:52.279Z,15.20
2018-06-30T04:46:54.413Z,15.30
2018-06-30T04:48:56.522Z,15.60
2018-06-30T04:50:58.636Z,15.50
2018-06-30T04:53:00.735Z,15.80
2018-06-30T04:55:02.854Z,16.00
2018-06-30T04:57:05.038Z,16.20
2018-06-30T04:59:07.137Z,16.10
2018-06-30T05:01:09.194Z,16.20
2018-06-30T05:03:11.290Z,16.30
2018-06-30T05:05:13.394Z,16.40
2018-06-30T05:07:15.481Z,16.30
2018-06-30T05:09:17.566Z,16.30
2018-06-30T05:11:19.669Z,16.30
2018-06-30T05:13:21.997Z,16.20
2018-06-30T05:15:24.077Z,16.20
2018-06-30T05:17:26.646Z,16.30
2018-06-30T05:19:29.169Z,16.30
2018-06-30T05:21:31.230Z,16.40
2018-06-30T05:23:33.317Z,16.60
2018-06-30T05:25:35.413Z,16.50
2018-06-30T05:27:37.482Z,16.40
2018-06-30T05:29:39.564Z,16.40
2018-06-30T05:31:41.658Z,16.50
2018-06-30T05:33:43.778Z,16.60
2018-06-30T05:35:45.854Z,16.50
2018-06-30T05:37:47.937Z,16.60
2018-06-30T05:39:50.004Z,16.50
2018-06-30T05:41:52.095Z,16.50
2018-06-30T05:43:54.186Z,16.70
2018-06-30T05:45:56.297Z,16.60
2018-06-30T05:47:58.406Z,16.70
2018-06-30T05:50:00.479Z,16.80
2018-06-30T05:52:02.582Z,16.80
2018-06-30T05:54:05.229Z,17.00
2018-06-30T05:56:07.297Z,16.90
2018-06-30T05:58:09.415Z,16.90
2018-06-30T06:00:11.517Z,16.90
2018-06-30T06:04:15.953Z,17.10
2018-06-30T06:06:18.133Z,17.30
2018-06-30T06:08:20.221Z,17.50
2018-06-30T06:10:22.326Z,17.60
2018-06-30T06:12:24.385Z,17.50
2018-06-30T06:14:26.473Z,17.50
2018-06-30T06:16:28.554Z,17.50
2018-06-30T06:18:30.638Z,17.50
2018-06-30T06:20:32.731Z,17.80
2018-06-30T06:22:34.873Z,17.80
2018-06-30T06:24:36.949Z,17.90
2018-06-30T06:26:39.104Z,17.80
2018-06-30T06:28:41.145Z,17.90
2018-06-30T06:30:43.222Z,18.00
2018-06-30T06:32:45.656Z,18.10
2018-06-30T06:34:47.678Z,18.00
2018-06-30T06:36:49.879Z,18.20
2018-06-30T06:38:52.147Z,18.10
2018-06-30T06:40:54.225Z,18.10
2018-06-30T06:42:56.310Z,18.20
2018-06-30T06:44:58.545Z,18.30
2018-06-30T06:47:00.614Z,18.30
2018-06-30T06:49:02.706Z,18.30
2018-06-30T06:51:04.957Z,18.30
2018-06-30T06:53:07.117Z,18.20
2018-06-30T06:55:09.272Z,18.30
2018-06-30T06:57:11.371Z,18.30
2018-06-30T06:59:13.463Z,18.30
2018-06-30T07:01:15.601Z,18.50
2018-06-30T07:03:17.678Z,18.40
2018-06-30T07:05:19.774Z,18.70
2018-06-30T07:07:22.075Z,18.90
2018-06-30T07:09:24.576Z,18.90
2018-06-30T07:11:26.715Z,18.90
2018-06-30T07:13:29.052Z,19.00
2018-06-30T07:15:31.230Z,19.00
2018-06-30T07:17:33.379Z,19.20
2018-06-30T07:19:35.565Z,19.20
2018-06-30T07:21:37.718Z,19.10
2018-06-30T07:23:39.865Z,19.30
2018-06-30T07:25:42.398Z,19.30
2018-06-30T07:27:44.518Z,19.10
2018-06-30T07:29:46.855Z,19.30
2018-06-30T07:31:49.161Z,19.30
2018-06-30T07:33:51.335Z,19.20
2018-06-30T07:35:53.451Z,19.50
2018-06-30T07:37:55.583Z,19.60
2018-06-30T07:39:57.755Z,19.90
2018-06-30T07:41:59.993Z,20.10
2018-06-30T07:44:02.159Z,20.20
2018-06-30T07:46:04.406Z,20.30
2018-06-30T07:48:06.992Z,20.10
2018-06-30T07:50:09.172Z,20.40
2018-06-30T07:52:11.352Z,20.10
2018-06-30T07:54:13.735Z,20.20
2018-06-30T07:56:15.897Z,20.30
2018-06-30T07:58:19.817Z,20.30
2018-06-30T08:00:22.202Z,20.10
2018-06-30T08:02:24.751Z,20.30
2018-06-30T08:04:33.622Z,20.30
2018-06-30T08:10:41.179Z,20.40
2018-06-30T08:12:43.426Z,20.10
2018-06-30T08:14:50.455Z,20.20
2018-06-30T08:16:52.735Z,20.30
2018-06-30T08:18:55.484Z,20.40
2018-06-30T08:20:58.020Z,20.60
2018-06-30T08:23:05.935Z,20.30
2018-06-30T08:25:08.361Z,20.30
2018-06-30T08:27:11.253Z,20.20
2018-06-30T08:29:14.167Z,20.70
2018-06-30T08:31:16.530Z,20.60
2018-06-30T08:33:18.910Z,20.60
2018-06-30T08:35:21.135Z,20.50
2018-06-30T08:37:23.498Z,20.60
2018-06-30T08:39:26.727Z,20.70
2018-06-30T08:41:29.250Z,20.90
2018-06-30T08:45:34.867Z,21.00
2018-06-30T08:47:37.457Z,21.00
2018-06-30T08:49:39.835Z,21.00
2018-06-30T08:51:42.086Z,21.20
2018-06-30T08:53:44.354Z,21.20
2018-06-30T08:55:48.986Z,21.20
2018-06-30T08:57:51.388Z,21.20
2018-06-30T08:59:53.739Z,21.20
2018-06-30T09:01:56.149Z,20.90
2018-06-30T09:03:58.895Z,21.00
2018-06-30T09:06:02.261Z,21.10
2018-06-30T09:08:04.771Z,21.20
2018-06-30T09:10:08.387Z,21.30
2018-06-30T09:12:11.018Z,21.70
2018-06-30T09:14:16.783Z,21.90
2018-06-30T09:16:19.964Z,21.90
2018-06-30T09:18:22.724Z,21.70
2018-06-30T09:20:25.319Z,21.80
2018-06-30T09:22:27.685Z,22.00
2018-06-30T09:24:29.998Z,21.70
2018-06-30T09:26:37.453Z,21.80
2018-06-30T09:28:40.193Z,21.90
2018-06-30T09:30:42.717Z,22.00
2018-06-30T09:32:45.290Z,21.70
2018-06-30T09:34:47.679Z,21.70
2018-06-30T09:36:50.094Z,21.50
2018-06-30T09:38:53.357Z,21.80
2018-06-30T09:40:55.730Z,22.50
2018-06-30T09:42:57.938Z,23.00
2018-06-30T09:45:00.139Z,22.80
2018-06-30T09:47:05.441Z,22.70
2018-06-30T09:49:07.854Z,22.80
2018-06-30T09:51:10.859Z,23.10
2018-06-30T09:53:13.903Z,23.30
2018-06-30T09:55:16.290Z,22.80
2018-06-30T09:57:18.597Z,22.80
2018-06-30T09:59:20.885Z,23.10
2018-06-30T10:01:23.085Z,22.80
2018-06-30T10:03:25.536Z,23.20
2018-06-30T10:05:27.883Z,23.00
2018-06-30T10:07:30.387Z,23.20
2018-06-30T10:09:32.646Z,23.40
2018-06-30T10:11:35.184Z,23.20
2018-06-30T10:13:37.663Z,22.60
2018-06-30T10:15:40.120Z,22.70
2018-06-30T10:17:42.923Z,23.10
2018-06-30T10:19:45.633Z,23.00
2018-06-30T10:21:47.967Z,23.40
2018-06-30T10:23:50.209Z,23.40
2018-06-30T10:25:52.504Z,23.90
2018-06-30T10:27:54.736Z,24.10
2018-06-30T10:29:56.979Z,23.90
2018-06-30T10:31:59.303Z,23.20
2018-06-30T10:34:01.674Z,23.30
2018-06-30T10:36:03.963Z,23.10
2018-06-30T10:38:06.232Z,23.40
2018-06-30T10:40:08.457Z,23.90
2018-06-30T10:42:10.819Z,24.00
2018-06-30T10:44:13.075Z,24.30
2018-06-30T10:46:15.394Z,24.80
2018-06-30T10:48:17.666Z,25.20
2018-06-30T10:50:20.028Z,24.70
2018-06-30T10:52:22.364Z,24.10
2018-06-30T10:54:24.754Z,24.00
2018-06-30T10:56:27.039Z,24.10
2018-06-30T10:58:29.380Z,24.00
2018-06-30T11:00:32.285Z,24.20
2018-06-30T11:02:35.072Z,24.10
2018-06-30T11:04:37.485Z,23.90
2018-06-30T11:06:39.854Z,23.80
2018-06-30T11:08:42.036Z,23.60
2018-06-30T11:10:51.629Z,23.80
2018-06-30T11:12:53.858Z,23.50
2018-06-30T11:14:56.066Z,23.70
2018-06-30T11:16:58.279Z,24.30
2018-06-30T11:19:00.582Z,25.10
2018-06-30T11:21:03.180Z,25.00
2018-06-30T11:23:05.447Z,24.80
2018-06-30T11:28:35.622Z,24.30
2018-06-30T11:30:37.846Z,24.10
2018-06-30T11:32:40.020Z,24.20
2018-06-30T11:34:42.291Z,25.00
2018-06-30T11:36:44.498Z,25.50
2018-06-30T11:38:46.730Z,25.30
2018-06-30T11:40:49.348Z,24.50
2018-06-30T11:42:51.546Z,24.50
2018-06-30T11:44:53.738Z,25.30
2018-06-30T11:46:55.994Z,25.80
2018-06-30T11:48:58.229Z,25.70
2018-06-30T11:51:00.565Z,25.00
2018-06-30T11:53:02.931Z,25.60
2018-06-30T11:55:05.389Z,25.90
2018-06-30T11:57:07.659Z,25.90
2018-06-30T11:59:10.255Z,26.60
2018-06-30T12:01:19.321Z,27.00
2018-06-30T12:03:22.145Z,26.00
2018-06-30T12:05:24.535Z,26.70
2018-06-30T12:07:27.036Z,26.30
2018-06-30T12:09:29.507Z,26.70
2018-06-30T12:11:31.894Z,26.10
2018-06-30T12:13:34.388Z,26.40
2018-06-30T12:15:36.774Z,26.60
2018-06-30T12:17:39.047Z,26.50
2018-06-30T12:19:41.821Z,26.50
2018-06-30T12:21:44.192Z,26.50
2018-06-30T12:23:46.683Z,27.50
2018-06-30T12:25:49.029Z,28.10
2018-06-30T12:27:51.379Z,27.60
2018-06-30T12:29:53.746Z,27.80
2018-06-30T12:31:56.253Z,27.10
2018-06-30T12:36:00.931Z,27.10
2018-06-30T12:38:03.499Z,26.80
2018-06-30T12:40:05.951Z,26.80
2018-06-30T12:42:08.639Z,27.70
2018-06-30T12:44:10.877Z,27.70
2018-06-30T12:46:13.165Z,26.10
2018-06-30T12:48:15.494Z,25.70
2018-06-30T12:50:17.798Z,25.30
2018-06-30T12:52:20.079Z,26.40
2018-06-30T12:54:22.484Z,28.00
2018-06-30T12:56:24.664Z,29.00
2018-06-30T13:00:29.107Z,29.60
2018-06-30T13:02:31.394Z,29.60
2018-06-30T13:04:33.687Z,28.60
2018-06-30T13:06:36.024Z,29.30
2018-06-30T13:08:38.271Z,27.50
2018-06-30T13:10:40.483Z,26.70
2018-06-30T13:12:42.698Z,26.20
2018-06-30T13:14:45.017Z,27.20
2018-06-30T13:16:47.409Z,28.20
2018-06-30T13:18:49.774Z,29.20
2018-06-30T13:20:52.520Z,30.20
2018-06-30T13:22:55.272Z,30.20
2018-06-30T13:24:57.604Z,30.70
2018-06-30T13:26:59.994Z,31.60
2018-06-30T13:29:02.651Z,30.80
2018-06-30T13:31:05.136Z,29.50
2018-06-30T13:33:07.368Z,28.80
2018-06-30T13:35:09.622Z,26.70
2018-06-30T13:37:12.274Z,27.50
2018-06-30T13:39:14.887Z,27.80
2018-06-30T13:41:17.223Z,28.90
2018-06-30T13:43:19.547Z,30.70
2018-06-30T13:45:21.715Z,31.20
2018-06-30T13:47:24.018Z,31.60
2018-06-30T13:49:26.298Z,31.20
2018-06-30T13:51:28.552Z,31.70
2018-06-30T13:53:30.810Z,32.10
2018-06-30T13:55:33.223Z,32.10
2018-06-30T13:57:35.654Z,31.50
2018-06-30T14:01:49.546Z,32.50
2018-06-30T14:03:51.735Z,30.10
2018-06-30T14:05:53.915Z,26.90
2018-06-30T14:07:56.120Z,25.10
2018-06-30T14:09:58.387Z,25.90
2018-06-30T14:12:00.546Z,24.60
2018-06-30T14:14:03.097Z,24.10
2018-06-30T14:16:09.291Z,24.40
2018-06-30T14:18:11.604Z,25.30
2018-06-30T14:20:13.898Z,27.30
2018-06-30T14:24:18.338Z,29.10
2018-06-30T14:26:20.551Z,29.30
2018-06-30T14:28:22.818Z,25.60
2018-06-30T14:30:25.067Z,25.50
2018-06-30T14:32:27.405Z,25.20
2018-06-30T14:34:29.822Z,25.40
2018-06-30T14:36:32.049Z,25.30
2018-06-30T14:38:34.324Z,25.60
2018-06-30T14:40:38.104Z,26.40
2018-06-30T14:42:40.288Z,27.60
2018-06-30T14:44:42.471Z,27.50
2018-06-30T14:46:44.678Z,27.50
2018-06-30T14:48:47.087Z,26.70
2018-06-30T14:50:49.344Z,26.50
2018-06-30T14:52:51.534Z,26.20
2018-06-30T14:54:53.706Z,24.70
2018-06-30T14:56:55.853Z,24.40
2018-06-30T14:58:58.066Z,24.20
2018-06-30T15:01:00.539Z,24.10
2018-06-30T15:03:02.716Z,23.80
2018-06-30T15:05:05.538Z,23.50
2018-06-30T15:07:07.718Z,23.90
2018-06-30T15:09:13.238Z,24.30
2018-06-30T15:11:16.516Z,24.80
2018-06-30T15:13:18.735Z,24.90
2018-06-30T15:15:21.014Z,24.70
2018-06-30T15:17:23.412Z,24.50
2018-06-30T15:19:25.629Z,24.10
2018-06-30T15:21:28.034Z,23.90
2018-06-30T15:23:30.421Z,23.70
2018-06-30T15:25:32.693Z,23.90
2018-06-30T15:27:35.028Z,23.70
2018-06-30T15:29:37.402Z,23.40
2018-06-30T15:31:39.641Z,23.40
2018-06-30T15:33:41.883Z,23.60
2018-06-30T15:35:44.202Z,23.60
2018-06-30T15:37:48.429Z,23.20
2018-06-30T15:39:50.778Z,23.20
2018-06-30T15:41:53.058Z,23.40
2018-06-30T15:43:55.285Z,23.50
2018-06-30T15:45:58.130Z,23.90
2018-06-30T15:48:00.294Z,24.00
2018-06-30T15:50:02.479Z,23.90
2018-06-30T15:52:04.735Z,23.80
2018-06-30T15:56:09.112Z,23.50
2018-06-30T15:58:11.562Z,23.60
2018-06-30T16:00:13.716Z,23.70
2018-06-30T16:02:15.891Z,23.70
2018-06-30T16:04:18.174Z,23.60
2018-06-30T16:06:20.354Z,23.50
2018-06-30T16:08:22.499Z,23.60
2018-06-30T16:10:24.683Z,23.60
2018-06-30T16:12:26.846Z,23.60
2018-06-30T16:14:29.051Z,23.60
2018-06-30T16:16:31.275Z,23.70
2018-06-30T16:18:33.418Z,23.50
2018-06-30T16:20:35.634Z,23.00
2018-06-30T16:22:37.842Z,23.10
2018-06-30T16:24:39.990Z,23.30
2018-06-30T16:26:42.271Z,23.40
2018-06-30T16:28:44.579Z,23.40
2018-06-30T16:30:46.742Z,23.40
2018-06-30T16:32:50.124Z,23.20
2018-06-30T16:34:52.309Z,23.40
2018-06-30T16:36:54.515Z,23.50
2018-06-30T16:38:56.690Z,23.30
2018-06-30T16:40:58.834Z,23.40
2018-06-30T16:43:01.067Z,23.40
2018-06-30T16:45:03.379Z,23.20
2018-06-30T16:47:05.614Z,23.00
2018-06-30T16:49:08.257Z,23.10
2018-06-30T16:51:10.370Z,23.20
2018-06-30T16:53:12.711Z,23.00
2018-06-30T16:55:14.884Z,23.10
2018-06-30T16:57:17.144Z,23.10
2018-06-30T16:59:19.611Z,23.10
2018-06-30T17:01:21.917Z,23.00
2018-06-30T17:03:24.066Z,23.10
2018-06-30T17:05:26.243Z,23.00
2018-06-30T17:07:28.402Z,23.00
2018-06-30T17:09:30.575Z,23.00
2018-06-30T17:11:32.797Z,23.00
2018-06-30T17:13:34.987Z,23.00
2018-06-30T17:15:37.145Z,23.00
2018-06-30T17:17:39.321Z,22.90
2018-06-30T17:19:41.508Z,22.90
2018-06-30T17:21:43.712Z,22.90
2018-06-30T17:23:45.909Z,22.80
2018-06-30T17:25:48.149Z,22.70
2018-06-30T17:27:50.275Z,22.70
2018-06-30T17:29:52.430Z,22.70
2018-06-30T17:31:59.589Z,22.70
2018-06-30T17:34:02.302Z,22.60
2018-06-30T17:36:06.022Z,22.60
2018-06-30T17:38:09.395Z,22.70
2018-06-30T17:40:12.158Z,22.70
2018-06-30T17:42:15.846Z,22.60
2018-06-30T17:44:18.228Z,22.70
2018-06-30T17:46:20.674Z,22.70
2018-06-30T17:48:23.065Z,22.60
2018-06-30T17:50:25.719Z,22.50
2018-06-30T17:52:28.127Z,22.40
2018-06-30T17:54:30.506Z,22.40
2018-06-30T17:56:33.435Z,22.30
2018-06-30T17:58:35.922Z,22.20
2018-06-30T18:00:41.555Z,22.20
2018-06-30T18:02:44.504Z,22.20
2018-06-30T18:04:47.915Z,22.20
2018-06-30T18:06:51.827Z,22.20
2018-06-30T18:09:01.703Z,22.10
2018-06-30T18:11:04.630Z,22.10
2018-06-30T18:13:08.718Z,22.00
2018-06-30T18:15:11.792Z,21.80
2018-06-30T18:17:14.247Z,21.90
2018-06-30T18:19:17.974Z,22.00
2018-06-30T18:21:20.415Z,22.00
2018-06-30T18:23:24.203Z,22.00
2018-06-30T18:25:27.965Z,21.90
2018-06-30T18:27:31.106Z,22.00
2018-06-30T18:29:34.488Z,21.90
2018-06-30T18:31:36.917Z,21.90
2018-06-30T18:33:43.237Z,21.90
2018-06-30T18:35:47.446Z,21.80
2018-06-30T18:37:50.378Z,21.80
2018-06-30T18:39:54.354Z,21.80
2018-06-30T18:41:57.782Z,21.80
2018-06-30T18:44:01.944Z,21.80
2018-06-30T18:46:05.907Z,21.70
2018-06-30T18:48:09.432Z,21.60
2018-06-30T18:50:11.682Z,21.50
2018-06-30T18:52:14.580Z,21.50
2018-06-30T18:54:17.202Z,21.50
2018-06-30T18:56:19.470Z,21.40
2018-06-30T18:58:21.768Z,21.50
2018-06-30T19:00:25.150Z,21.20
2018-06-30T19:02:27.446Z,21.30
2018-06-30T19:04:30.071Z,21.20
2018-06-30T19:06:32.325Z,21.20
2018-06-30T19:08:34.515Z,21.20
2018-06-30T19:10:36.737Z,21.20
2018-06-30T19:14:41.191Z,21.10
2018-06-30T19:16:43.430Z,21.10
2018-06-30T19:18:45.914Z,21.10
2018-06-30T19:20:48.290Z,21.00
2018-06-30T19:22:51.280Z,21.00
2018-06-30T19:24:54.320Z,21.00
2018-06-30T19:26:56.639Z,20.90
2018-06-30T19:28:59.113Z,20.90
2018-06-30T19:31:01.383Z,20.80
2018-06-30T19:33:03.678Z,20.80
2018-06-30T19:35:06.073Z,20.90
2018-06-30T19:37:08.531Z,20.80
2018-06-30T19:39:12.182Z,20.80
2018-06-30T19:41:14.539Z,20.70
2018-06-30T19:43:17.068Z,20.80
2018-06-30T19:45:19.391Z,20.80
2018-06-30T19:47:21.636Z,20.50
2018-06-30T19:49:24.364Z,20.50
2018-06-30T19:53:29.151Z,20.50
2018-06-30T19:55:31.399Z,20.40
2018-06-30T19:57:34.779Z,20.40
2018-06-30T19:59:37.138Z,20.30
2018-06-30T20:01:39.402Z,20.20
2018-06-30T20:03:41.728Z,20.30
2018-06-30T20:05:44.081Z,20.30
2018-06-30T20:07:52.264Z,20.30
2018-06-30T20:09:54.468Z,20.20
2018-06-30T20:11:56.769Z,20.20
2018-06-30T20:13:58.805Z,20.30
2018-06-30T20:16:01.368Z,20.10
2018-06-30T20:18:03.896Z,20.20
2018-06-30T20:20:07.240Z,20.10
2018-06-30T20:22:09.677Z,20.00
2018-06-30T20:24:11.812Z,19.90
2018-06-30T20:26:13.962Z,19.90
2018-06-30T20:28:16.131Z,19.90
2018-06-30T20:30:18.438Z,20.00
2018-06-30T20:32:22.747Z,19.90
2018-06-30T20:34:28.688Z,19.70
2018-06-30T20:36:33.287Z,19.70
2018-06-30T20:38:35.649Z,19.80
2018-06-30T20:40:37.993Z,19.90
2018-06-30T20:42:40.155Z,19.60
2018-06-30T20:44:42.319Z,19.70
2018-06-30T20:46:44.590Z,19.60
2018-06-30T20:48:46.846Z,19.50
2018-06-30T20:50:49.205Z,19.50
2018-06-30T20:52:51.350Z,19.40
2018-06-30T20:54:53.555Z,19.50
2018-06-30T20:56:55.789Z,19.50
2018-06-30T20:58:57.929Z,19.50
2018-06-30T21:01:00.159Z,19.50
2018-06-30T21:03:08.524Z,19.50
2018-06-30T21:05:10.730Z,19.40
2018-06-30T21:07:12.897Z,19.30
2018-06-30T21:09:15.051Z,19.30
2018-06-30T21:11:17.358Z,19.30
2018-06-30T21:13:19.509Z,19.30
2018-06-30T21:15:21.663Z,19.20
2018-06-30T21:17:24.119Z,19.10
2018-06-30T21:19:26.293Z,19.10
2018-06-30T21:21:28.654Z,19.30
2018-06-30T21:23:30.814Z,19.30
2018-06-30T21:25:32.986Z,19.30
2018-06-30T21:27:35.131Z,19.30
2018-06-30T21:29:37.343Z,19.20
2018-06-30T21:31:39.538Z,19.20
2018-06-30T21:35:43.978Z,19.10
2018-06-30T21:37:46.119Z,19.10
2018-06-30T21:39:48.259Z,19.00
2018-06-30T21:41:50.618Z,19.00
2018-06-30T21:43:52.814Z,19.10
2018-06-30T21:45:54.990Z,18.80
2018-06-30T21:47:57.143Z,18.60
2018-06-30T21:49:59.294Z,18.60
2018-06-30T21:52:01.605Z,18.70
2018-06-30T21:54:03.763Z,18.60
2018-06-30T21:56:05.978Z,18.30
2018-06-30T21:58:08.109Z,18.30
2018-06-30T22:00:12.322Z,18.40
2018-06-30T22:02:14.490Z,18.20
2018-06-30T22:04:16.566Z,18.30
2018-06-30T22:06:18.861Z,18.30
2018-06-30T22:10:23.083Z,18.20
2018-06-30T22:12:25.165Z,18.30
2018-06-30T22:14:27.261Z,18.30
2018-06-30T22:16:29.370Z,18.20
2018-06-30T22:18:31.534Z,18.30
2018-06-30T22:20:34.662Z,18.30
2018-06-30T22:22:36.750Z,18.20
2018-06-30T22:24:38.841Z,18.10
2018-06-30T22:26:41.001Z,18.10
2018-06-30T22:30:45.259Z,18.10
2018-06-30T22:32:47.381Z,18.10
2018-06-30T22:34:49.494Z,18.00
2018-06-30T22:36:51.595Z,18.00
2018-06-30T22:38:53.683Z,17.80
2018-06-30T22:40:55.745Z,17.90
2018-06-30T22:42:57.840Z,17.70
2018-06-30T22:44:59.927Z,17.70
2018-06-30T22:47:02.008Z,17.60
2018-06-30T22:49:04.110Z,17.50
2018-06-30T22:51:06.215Z,17.40
2018-06-30T22:53:08.309Z,17.30
2018-06-30T22:55:10.409Z,17.20
2018-06-30T22:57:12.482Z,17.20
2018-06-30T23:01:23.859Z,17.30
2018-06-30T23:03:25.970Z,17.30
2018-06-30T23:05:28.061Z,17.30
2018-06-30T23:07:30.177Z,17.20
2018-06-30T23:09:32.274Z,17.20
2018-06-30T23:11:34.390Z,17.00
2018-06-30T23:13:36.465Z,16.90
2018-06-30T23:15:38.563Z,16.90
2018-06-30T23:17:40.816Z,16.80
2018-06-30T23:19:42.935Z,16.80
2018-06-30T23:21:45.015Z,16.70
2018-06-30T23:23:47.119Z,16.70
2018-06-30T23:25:49.214Z,16.80
2018-06-30T23:27:51.378Z,16.60
2018-06-30T23:29:53.475Z,16.50
2018-06-30T23:31:55.641Z,16.70
2018-06-30T23:33:57.747Z,16.50
2018-06-30T23:35:59.825Z,16.70
2018-06-30T23:38:02.685Z,16.60
2018-06-30T23:40:04.879Z,16.70
2018-06-30T23:42:06.965Z,16.50
2018-06-30T23:44:09.076Z,16.50
2018-06-30T23:46:11.185Z,16.40
2018-06-30T23:48:13.277Z,16.40
2018-06-30T23:50:15.375Z,16.40
2018-06-30T23:52:17.712Z,16.50
2018-06-30T23:54:19.702Z,16.40
2018-06-30T23:56:21.780Z,16.30
2018-06-30T23:58:23.897Z,16.20
